Time;durP1;ratioP1;P1;durP2;ratioP2;P2;SDS_P1;SDS_P2;PMS_P1;PMS_P2;Temp;Humidity;BMP_temperature;BMP_pressure;BME280_temperature;BME280_humidity;BME280_pressure;Samples;Min_cycle;Max_cycle;Signal;HPM_P1;HPM_P2
2023/08/11 00:00:08;;;;;;;0.47;0.47;;;21.10;84.80;;;;;;4965523;28;20030;-86
2023/08/11 00:02:40;;;;;;;;;;;21.00;85.50;;;;;;4965560;28;20039;-86
2023/08/11 00:05:07;;;;;;;1.08;1.02;;;21.10;85.20;;;;;;4964803;28;19910;-86
2023/08/11 00:07:34;;;;;;;7.97;0.77;;;20.90;85.60;;;;;;4965083;28;20093;-85
2023/08/11 00:09:59;;;;;;;0.35;0.35;;;21.10;86.00;;;;;;4963592;28;20052;-86
2023/08/11 00:12:25;;;;;;;0.20;0.20;;;21.10;85.50;;;;;;4965001;28;20021;-86
2023/08/11 00:14:52;;;;;;;0.20;0.20;;;21.10;85.00;;;;;;4965281;28;20052;-85
2023/08/11 00:17:18;;;;;;;2.72;1.45;;;21.10;85.20;;;;;;4964801;28;20498;-86
2023/08/11 00:19:44;;;;;;;3.78;1.05;;;21.10;85.50;;;;;;4964585;28;20126;-86
2023/08/11 00:22:10;;;;;;;11.80;1.27;;;20.90;85.80;;;;;;4977943;28;20027;-86
2023/08/11 00:24:36;;;;;;;0.20;0.20;;;20.90;86.30;;;;;;4965736;28;20057;-87
2023/08/11 00:27:02;;;;;;;0.00;0.00;;;21.00;86.10;;;;;;4964305;28;20288;-87
2023/08/11 00:29:30;;;;;;;;;;;20.80;86.30;;;;;;4964615;28;20035;-87
2023/08/11 00:31:56;;;;;;;0.52;0.52;;;20.90;86.50;;;;;;4962144;28;19941;-86
2023/08/11 00:34:21;;;;;;;0.40;0.40;;;20.90;86.20;;;;;;4964067;28;20141;-86
2023/08/11 00:36:47;;;;;;;0.07;0.07;;;20.90;86.40;;;;;;4964835;28;20133;-85
2023/08/11 00:39:13;;;;;;;0.10;0.10;;;20.90;86.60;;;;;;4962301;28;20066;-85
2023/08/11 00:41:39;;;;;;;4.90;1.37;;;20.90;86.90;;;;;;4964828;28;20062;-85
2023/08/11 00:44:05;;;;;;;2.63;0.57;;;20.90;87.30;;;;;;4964634;28;20471;-84
2023/08/11 00:46:30;;;;;;;4.28;0.63;;;20.80;87.50;;;;;;4964701;28;20784;-85
2023/08/11 00:48:56;;;;;;;2.67;1.87;;;20.80;87.50;;;;;;4962437;28;20042;-85
2023/08/11 00:51:24;;;;;;;0.00;0.00;;;20.70;87.90;;;;;;4964473;28;20037;-84
2023/08/11 00:53:51;;;;;;;0.00;0.00;;;20.60;88.10;;;;;;4964426;28;20069;-84
2023/08/11 00:56:21;;;;;;;1.00;0.30;;;20.60;88.40;;;;;;4968834;28;20023;-85
2023/08/11 00:58:49;;;;;;;4.72;1.10;;;20.60;88.30;;;;;;4963851;28;20038;-86
2023/08/11 01:01:16;;;;;;;0.73;0.38;;;20.60;88.70;;;;;;4964240;28;20335;-84
2023/08/11 01:03:43;;;;;;;0.65;0.65;;;20.70;88.30;;;;;;4963931;28;20091;-84
2023/08/11 01:06:33;;;;;;;0.52;0.47;;;20.60;88.30;;;;;;4962570;28;20474;-84
2023/08/11 01:09:06;;;;;;;0.03;0.03;;;20.50;88.70;;;;;;4963817;28;20050;-85
2023/08/11 01:11:45;;;;;;;0.00;0.00;;;20.60;88.80;;;;;;4963598;28;20540;-85
2023/08/11 01:14:41;;;;;;;0.50;0.50;;;20.60;88.50;;;;;;4962548;28;20391;-85
2023/08/11 01:17:12;;;;;;;0.15;0.15;;;20.60;88.20;;;;;;4959930;28;20034;-86
2023/08/11 01:19:39;;;;;;;0.38;0.38;;;20.50;88.60;;;;;;4964199;28;20097;-86
2023/08/11 01:22:21;;;;;;;0.47;0.47;;;20.40;88.70;;;;;;4962421;28;20122;-85
2023/08/11 01:24:48;;;;;;;0.38;0.38;;;20.40;89.20;;;;;;4963761;28;20149;-86
2023/08/11 01:27:13;;;;;;;1.98;1.20;;;20.50;88.90;;;;;;4963858;28;20027;-86
2023/08/11 01:29:39;;;;;;;0.07;0.07;;;20.40;89.20;;;;;;4964118;28;20117;-85
2023/08/11 01:32:05;;;;;;;0.45;0.45;;;20.40;89.60;;;;;;4960082;28;20030;-85
2023/08/11 01:34:31;;;;;;;0.13;0.13;;;20.40;89.30;;;;;;4964022;28;20031;-85
2023/08/11 01:37:01;;;;;;;0.20;0.20;;;20.30;90.10;;;;;;4963935;28;20493;-85
2023/08/11 01:39:30;;;;;;;1.85;0.95;;;20.20;90.30;;;;;;4963839;28;20034;-86
2023/08/11 01:41:56;;;;;;;0.13;0.13;;;19.90;90.90;;;;;;4964438;28;20027;-86
2023/08/11 01:44:22;;;;;;;0.20;0.20;;;19.90;91.30;;;;;;4967884;28;20035;-86
2023/08/11 01:46:50;;;;;;;1.55;1.15;;;19.90;91.10;;;;;;4967475;28;20533;-86
2023/08/11 01:49:16;;;;;;;0.00;0.00;;;19.80;91.30;;;;;;4968164;28;20046;-86
2023/08/11 01:51:42;;;;;;;0.00;0.00;;;19.70;91.50;;;;;;4966349;28;20062;-86
2023/08/11 01:54:08;;;;;;;3.10;1.98;;;19.70;91.70;;;;;;4967577;28;20117;-86
2023/08/11 01:56:37;;;;;;;10.93;0.60;;;19.60;91.80;;;;;;4967732;28;20113;-85
2023/08/11 01:59:04;;;;;;;3.00;0.75;;;19.50;92.00;;;;;;4967612;28;20066;-85
2023/08/11 02:01:30;;;;;;;0.20;0.20;;;19.50;92.10;;;;;;4967976;28;20053;-86
2023/08/11 02:03:57;;;;;;;0.75;0.60;;;19.50;91.90;;;;;;4967116;28;20034;-86
2023/08/11 02:06:23;;;;;;;0.35;0.35;;;19.40;92.10;;;;;;4967729;28;20521;-85
2023/08/11 02:08:49;;;;;;;0.30;0.30;;;19.40;92.30;;;;;;4966941;28;20042;-86
2023/08/11 02:11:15;;;;;;;0.23;0.23;;;19.40;92.20;;;;;;4967178;28;20037;-86
2023/08/11 02:13:40;;;;;;;2.10;0.63;;;19.40;92.20;;;;;;4966880;28;20038;-87
2023/08/11 02:16:06;;;;;;;0.73;0.57;;;19.30;92.60;;;;;;4966805;28;20117;-86
2023/08/11 02:18:32;;;;;;;0.00;0.00;;;19.30;92.70;;;;;;4966479;28;20034;-86
2023/08/11 02:20:57;;;;;;;0.13;0.13;;;19.20;92.80;;;;;;4966934;28;20035;-86
2023/08/11 02:23:23;;;;;;;0.27;0.27;;;19.20;92.90;;;;;;4967147;28;20527;-87
2023/08/11 02:25:49;;;;;;;0.10;0.10;;;19.20;92.80;;;;;;4966799;28;20042;-86
2023/08/11 02:28:15;;;;;;;0.27;0.27;;;19.20;92.60;;;;;;4966920;28;20043;-86
2023/08/11 02:30:41;;;;;;;0.30;0.30;;;19.20;92.70;;;;;;4966431;28;20036;-86
2023/08/11 02:33:07;;;;;;;0.00;0.00;;;19.30;92.80;;;;;;4966268;28;20051;-86
2023/08/11 02:35:33;;;;;;;0.10;0.10;;;19.20;92.90;;;;;;4966725;28;20046;-87
2023/08/11 02:37:59;;;;;;;0.67;0.53;;;19.20;93.00;;;;;;4966444;28;20553;-87
2023/08/11 02:40:26;;;;;;;0.10;0.10;;;19.10;93.10;;;;;;4966587;28;20406;-88
2023/08/11 02:42:59;;;;;;;0.40;0.40;;;19.10;93.10;;;;;;4966254;28;20019;-87
2023/08/11 02:45:25;;;;;;;1.02;0.95;;;19.20;93.20;;;;;;4966398;28;20086;-87
2023/08/11 02:47:51;;;;;;;;;;;19.20;93.30;;;;;;4964938;28;20089;-86
2023/08/11 02:50:17;;;;;;;0.30;0.30;;;19.20;93.30;;;;;;4967050;28;19910;-87
2023/08/11 02:52:43;;;;;;;0.17;0.17;;;19.20;93.20;;;;;;4966656;28;20045;-85
2023/08/11 02:55:09;;;;;;;0.07;0.07;;;19.20;93.30;;;;;;4965282;28;20541;-86
2023/08/11 02:57:36;;;;;;;0.00;0.00;;;19.10;93.50;;;;;;4966580;28;20031;-86
2023/08/11 03:00:12;;;;;;;0.77;0.77;;;19.10;93.50;;;;;;4966493;28;20149;-85
2023/08/11 03:02:42;;;;;;;0.00;0.00;;;19.10;93.60;;;;;;4966351;28;20045;-85
2023/08/11 03:05:09;;;;;;;0.00;0.00;;;19.00;93.80;;;;;;4964796;28;20424;-86
2023/08/11 03:07:36;;;;;;;0.32;0.32;;;19.10;93.70;;;;;;4966334;28;20041;-86
2023/08/11 03:10:02;;;;;;;0.35;0.35;;;19.10;93.70;;;;;;4966301;28;20027;-85
2023/08/11 03:12:28;;;;;;;0.20;0.20;;;19.10;93.80;;;;;;4966439;28;20027;-86
2023/08/11 03:14:54;;;;;;;0.67;0.67;;;19.10;93.90;;;;;;4966377;28;20030;-86
2023/08/11 03:17:20;;;;;;;8.80;1.38;;;19.10;94.10;;;;;;4966606;28;20031;-86
2023/08/11 03:19:46;;;;;;;1.90;0.80;;;19.10;94.10;;;;;;4958193;28;20787;-86
2023/08/11 03:22:13;;;;;;;0.20;0.20;;;19.10;94.10;;;;;;4966112;28;20121;-86
2023/08/11 03:24:39;;;;;;;0.35;0.35;;;19.10;94.00;;;;;;4966239;28;20062;-86
2023/08/11 03:27:06;;;;;;;5.85;1.48;;;19.10;94.00;;;;;;4966329;28;20101;-85
2023/08/11 03:29:32;;;;;;;0.00;0.00;;;19.20;94.00;;;;;;4967529;28;20030;-86
2023/08/11 03:31:58;;;;;;;0.32;0.32;;;19.20;93.60;;;;;;4965881;28;20110;-85
2023/08/11 03:34:24;;;;;;;0.33;0.33;;;19.20;93.70;;;;;;4966400;28;20041;-85
2023/08/11 03:36:49;;;;;;;0.00;0.00;;;19.20;94.20;;;;;;4965961;28;20031;-85
2023/08/11 03:39:15;;;;;;;0.07;0.07;;;19.20;94.60;;;;;;4966288;28;20113;-84
2023/08/11 03:41:41;;;;;;;0.00;0.00;;;19.20;94.40;;;;;;4966111;28;20031;-84
2023/08/11 03:44:06;;;;;;;0.00;0.00;;;19.30;94.70;;;;;;4964819;28;20069;-84
2023/08/11 03:46:32;;;;;;;1.23;0.73;;;19.30;94.80;;;;;;4966023;28;20039;-84
2023/08/11 03:48:58;;;;;;;4.13;0.67;;;19.20;95.20;;;;;;4965657;28;20093;-86
2023/08/11 03:51:23;;;;;;;1.50;1.40;;;19.20;95.60;;;;;;4965223;28;20041;-85
2023/08/11 03:53:49;;;;;;;0.10;0.10;;;19.30;95.20;;;;;;4965141;28;20046;-84
2023/08/11 03:56:15;;;;;;;0.20;0.20;;;19.20;95.70;;;;;;4965205;28;20467;-85
2023/08/11 03:58:41;;;;;;;0.20;0.20;;;19.20;96.00;;;;;;4965647;28;20026;-85
2023/08/11 04:01:06;;;;;;;4.87;2.67;;;19.10;96.20;;;;;;4964170;28;20029;-87
2023/08/11 04:03:32;;;;;;;0.27;0.27;;;19.20;96.10;;;;;;4963894;28;20116;-87
2023/08/11 04:05:58;;;;;;;0.47;0.47;;;19.20;96.10;;;;;;4964321;28;20546;-87
2023/08/11 04:08:25;;;;;;;1.75;0.70;;;19.30;95.90;;;;;;4965720;28;20035;-85
2023/08/11 04:10:52;;;;;;;0.38;0.38;;;19.40;95.60;;;;;;4964963;28;20030;-85
2023/08/11 04:13:17;;;;;;;0.13;0.13;;;19.40;95.60;;;;;;4963558;28;20065;-86
2023/08/11 04:15:45;;;;;;;0.37;0.37;;;19.40;95.70;;;;;;4964767;28;20546;-86
2023/08/11 04:18:12;;;;;;;0.25;0.25;;;19.30;96.20;;;;;;4964969;28;20372;-86
2023/08/11 04:20:38;;;;;;;0.40;0.40;;;19.30;96.20;;;;;;4965362;28;20122;-86
2023/08/11 04:23:04;;;;;;;2.22;1.00;;;19.30;96.50;;;;;;4965352;28;20054;-87
2023/08/11 04:25:29;;;;;;;0.40;0.40;;;19.30;96.40;;;;;;4963045;28;20135;-87
2023/08/11 04:27:55;;;;;;;13.17;1.10;;;19.30;96.30;;;;;;4964898;28;20576;-86
2023/08/11 04:30:21;;;;;;;1.50;0.93;;;19.30;96.30;;;;;;4962110;28;20035;-86
2023/08/11 04:32:47;;;;;;;0.30;0.20;;;19.40;96.20;;;;;;4964588;28;20042;-84
2023/08/11 04:35:13;;;;;;;2.43;0.70;;;19.30;96.40;;;;;;4964232;28;20023;-85
2023/08/11 04:37:39;;;;;;;0.53;0.53;;;19.30;96.60;;;;;;4964746;28;20475;-86
2023/08/11 04:40:09;;;;;;;0.30;0.30;;;19.30;96.60;;;;;;4962796;28;20031;-84
2023/08/11 04:42:34;;;;;;;0.32;0.32;;;19.40;96.50;;;;;;4964669;28;20090;-85
2023/08/11 04:45:00;;;;;;;1.40;1.30;;;19.40;96.60;;;;;;4965042;28;20038;-85
2023/08/11 04:47:26;;;;;;;0.30;0.30;;;19.40;96.70;;;;;;4964813;28;20037;-84
2023/08/11 04:49:52;;;;;;;0.63;0.63;;;19.30;96.70;;;;;;4964349;28;20116;-83
2023/08/11 04:52:17;;;;;;;0.10;0.10;;;19.40;96.60;;;;;;4964784;28;20034;-84
2023/08/11 04:54:43;;;;;;;0.00;0.00;;;19.40;96.60;;;;;;4964873;28;20165;-85
2023/08/11 04:57:09;;;;;;;0.40;0.40;;;19.40;96.50;;;;;;4964258;28;20081;-84
2023/08/11 04:59:34;;;;;;;0.87;0.43;;;19.40;96.50;;;;;;4964468;28;20490;-84
2023/08/11 05:02:00;;;;;;;3.03;1.17;;;19.30;96.30;;;;;;4964114;28;20675;-85
2023/08/11 05:04:26;;;;;;;0.67;0.67;;;19.30;96.50;;;;;;4964654;28;20470;-84
2023/08/11 05:06:52;;;;;;;0.30;0.30;;;19.30;96.60;;;;;;4957990;28;20145;-81
2023/08/11 05:09:17;;;;;;;1.07;0.40;;;19.40;96.60;;;;;;4948279;28;20643;-81
2023/08/11 05:11:43;;;;;;;0.00;0.00;;;19.50;96.00;;;;;;4979319;28;20503;-81
2023/08/11 05:14:09;;;;;;;0.27;0.27;;;19.70;95.40;;;;;;4964398;28;20483;-80
2023/08/11 05:16:34;;;;;;;1.10;1.00;;;19.60;95.50;;;;;;4963795;28;20089;-81
2023/08/11 05:19:00;;;;;;;0.23;0.23;;;19.60;95.80;;;;;;4965073;28;20089;-80
2023/08/11 05:21:26;;;;;;;1.50;0.93;;;19.60;95.70;;;;;;4963118;28;20030;-81
2023/08/11 05:23:51;;;;;;;0.97;0.30;;;19.60;95.50;;;;;;4962254;28;20031;-80
2023/08/11 05:26:17;;;;;;;0.00;0.00;;;19.60;95.50;;;;;;4962467;28;20051;-81
2023/08/11 05:28:43;;;;;;;0.20;0.20;;;19.70;95.30;;;;;;4980719;28;20042;-81
2023/08/11 05:31:09;;;;;;;2.10;1.08;;;19.70;95.10;;;;;;4962592;28;20031;-81
2023/08/11 05:33:35;;;;;;;3.73;0.83;;;19.70;95.30;;;;;;4962877;28;20045;-80
2023/08/11 05:36:00;;;;;;;0.10;0.10;;;19.80;95.10;;;;;;4967079;28;20403;-81
2023/08/11 05:38:26;;;;;;;0.00;0.00;;;19.90;94.90;;;;;;4968049;28;20025;-81
2023/08/11 05:40:52;;;;;;;0.30;0.30;;;19.90;94.80;;;;;;4968433;28;20027;-81
2023/08/11 05:43:18;;;;;;;0.27;0.23;;;20.00;94.60;;;;;;4961695;28;20034;-82
2023/08/11 05:45:43;;;;;;;0.33;0.33;;;20.10;94.50;;;;;;4963149;28;20759;-80
2023/08/11 05:48:09;;;;;;;0.00;0.00;;;20.00;94.40;;;;;;4963020;28;20023;-80
2023/08/11 05:50:38;;;;;;;1.58;0.88;;;20.00;94.40;;;;;;4963282;28;20458;-87
2023/08/11 05:53:03;;;;;;;0.52;0.40;;;19.90;94.70;;;;;;4961069;28;20117;-85
2023/08/11 05:55:29;;;;;;;0.40;0.40;;;19.80;94.80;;;;;;4963220;28;20026;-86
2023/08/11 05:57:55;;;;;;;0.40;0.40;;;19.80;94.60;;;;;;4963077;28;20027;-82
2023/08/11 06:00:22;;;;;;;0.57;0.47;;;19.80;94.70;;;;;;4963675;28;20045;-83
2023/08/11 06:02:47;;;;;;;4.50;0.85;;;19.90;94.70;;;;;;4960871;28;20031;-83
2023/08/11 06:05:13;;;;;;;0.30;0.30;;;19.90;94.40;;;;;;4952772;28;20106;-82
2023/08/11 06:07:39;;;;;;;0.10;0.10;;;19.70;94.60;;;;;;4965047;28;20126;-82
2023/08/11 06:10:06;;;;;;;0.20;0.20;;;19.80;94.90;;;;;;4962867;28;20090;-81
2023/08/11 06:12:32;;;;;;;0.35;0.35;;;19.80;94.90;;;;;;4961486;28;20138;-81
2023/08/11 06:14:58;;;;;;;0.20;0.20;;;19.90;94.80;;;;;;4963288;28;20062;-83
2023/08/11 06:17:24;;;;;;;0.00;0.00;;;19.90;94.20;;;;;;4963648;28;20114;-81
2023/08/11 06:19:50;;;;;;;0.10;0.10;;;20.00;94.20;;;;;;4966870;28;20101;-82
2023/08/11 06:22:16;;;;;;;0.13;0.13;;;20.00;94.10;;;;;;4963919;28;20506;-84
2023/08/11 06:24:41;;;;;;;0.17;0.17;;;20.10;93.60;;;;;;4963530;28;20047;-84
2023/08/11 06:27:09;;;;;;;0.10;0.10;;;20.20;93.60;;;;;;4961987;28;20034;-85
2023/08/11 06:29:35;;;;;;;0.13;0.13;;;20.10;93.20;;;;;;4960770;28;20077;-82
2023/08/11 06:32:01;;;;;;;0.15;0.15;;;20.20;93.30;;;;;;4966326;28;20106;-82
2023/08/11 06:34:26;;;;;;;0.00;0.00;;;20.30;93.10;;;;;;4966583;28;20762;-82
2023/08/11 06:36:52;;;;;;;0.10;0.10;;;20.00;93.70;;;;;;4966334;28;20027;-83
2023/08/11 06:39:18;;;;;;;3.40;0.70;;;20.10;93.60;;;;;;4954481;28;20046;-83
2023/08/11 06:41:43;;;;;;;0.27;0.27;;;19.90;93.80;;;;;;4964684;28;20784;-83
2023/08/11 06:44:09;;;;;;;2.60;1.33;;;19.80;94.00;;;;;;4965356;28;20030;-82
2023/08/11 06:46:35;;;;;;;2.27;1.27;;;19.90;94.20;;;;;;4965335;28;20070;-82
2023/08/11 06:49:02;;;;;;;0.40;0.40;;;19.90;93.80;;;;;;4965339;28;20031;-82
2023/08/11 06:51:28;;;;;;;0.45;0.45;;;20.00;93.70;;;;;;4964808;28;20488;-83
2023/08/11 06:53:54;;;;;;;0.00;0.00;;;19.90;93.80;;;;;;4958342;28;20034;-82
2023/08/11 06:56:19;;;;;;;0.30;0.30;;;20.00;93.50;;;;;;4964914;28;20576;-82
2023/08/11 06:58:45;;;;;;;0.30;0.30;;;20.00;93.40;;;;;;4962611;28;20061;-83
2023/08/11 07:01:11;;;;;;;2.00;1.40;;;19.90;93.40;;;;;;4965697;28;20031;-82
2023/08/11 07:03:37;;;;;;;0.30;0.30;;;19.90;93.60;;;;;;4964066;28;21011;-83
2023/08/11 07:06:03;;;;;;;0.50;0.50;;;20.10;93.40;;;;;;4965526;28;20022;-83
2023/08/11 07:08:29;;;;;;;0.97;0.70;;;20.20;93.30;;;;;;4965067;28;20085;-83
2023/08/11 07:10:55;;;;;;;0.08;0.08;;;20.20;93.00;;;;;;4962920;28;20129;-83
2023/08/11 07:13:20;;;;;;;0.03;0.03;;;20.10;93.20;;;;;;4965262;28;20571;-83
2023/08/11 07:15:46;;;;;;;0.23;0.23;;;19.90;93.80;;;;;;4954385;28;20262;-83
2023/08/11 07:18:13;;;;;;;0.57;0.57;;;20.10;93.80;;;;;;4965017;28;20403;-84
2023/08/11 07:20:42;;;;;;;1.55;1.45;;;20.10;93.10;;;;;;4965636;28;20337;-84
2023/08/11 07:23:08;;;;;;;0.10;0.10;;;20.20;93.40;;;;;;4964548;28;20172;-84
2023/08/11 07:25:33;;;;;;;0.03;0.03;;;20.10;93.10;;;;;;4956646;28;20137;-82
2023/08/11 07:27:59;;;;;;;0.00;0.00;;;20.30;92.90;;;;;;4957867;28;20483;-83
2023/08/11 07:30:25;;;;;;;0.20;0.20;;;20.80;92.00;;;;;;4971937;28;20114;-83
2023/08/11 07:32:51;;;;;;;2.73;1.23;;;20.50;92.00;;;;;;4963424;28;20061;-82
2023/08/11 07:35:17;;;;;;;0.13;0.13;;;20.70;91.90;;;;;;4965513;28;20023;-83
2023/08/11 07:37:43;;;;;;;0.03;0.03;;;20.80;91.70;;;;;;4965885;28;20057;-84
2023/08/11 07:40:09;;;;;;;0.20;0.20;;;20.90;91.40;;;;;;4960196;28;20545;-83
2023/08/11 07:42:35;;;;;;;1.20;1.08;;;21.00;91.00;;;;;;4964589;28;20041;-84
2023/08/11 07:45:00;;;;;;;0.60;0.60;;;21.00;91.10;;;;;;4963602;28;20081;-82
2023/08/11 07:47:26;;;;;;;0.40;0.40;;;20.90;91.40;;;;;;4963097;28;20587;-83
2023/08/11 07:49:52;;;;;;;0.00;0.00;;;21.10;91.10;;;;;;4959872;28;20534;-84
2023/08/11 07:52:18;;;;;;;0.30;0.20;;;21.40;90.50;;;;;;4963111;28;20530;-83
2023/08/11 07:54:44;;;;;;;0.47;0.43;;;21.70;89.90;;;;;;4960266;28;20110;-83
2023/08/11 07:57:10;;;;;;;0.23;0.23;;;21.50;89.90;;;;;;4961938;28;20394;-83
2023/08/11 07:59:36;;;;;;;;;;;21.30;90.10;;;;;;4961127;28;20491;-83
2023/08/11 08:02:03;;;;;;;2.72;1.23;;;21.30;90.50;;;;;;4965700;28;19925;-83
2023/08/11 08:04:29;;;;;;;0.20;0.20;;;21.50;89.90;;;;;;4965119;28;20031;-83
2023/08/11 08:06:55;;;;;;;0.15;0.15;;;21.80;88.50;;;;;;4963697;28;20041;-82
2023/08/11 08:09:21;;;;;;;0.23;0.23;;;21.90;87.10;;;;;;4963771;28;20126;-83
2023/08/11 08:11:48;;;;;;;1.85;1.17;;;21.90;88.10;;;;;;4964670;28;20027;-82
2023/08/11 08:14:14;;;;;;;0.95;0.90;;;21.90;88.10;;;;;;4965006;28;20035;-83
2023/08/11 08:16:49;;;;;;;0.10;0.10;;;22.50;86.20;;;;;;4959198;28;20023;-83
2023/08/11 08:19:16;;;;;;;0.40;0.40;;;22.80;84.60;;;;;;4964827;28;20049;-83
2023/08/11 08:21:42;;;;;;;0.52;0.52;;;22.90;83.90;;;;;;4965777;28;20058;-84
2023/08/11 08:24:08;;;;;;;0.40;0.40;;;22.70;85.20;;;;;;4963905;28;20072;-83
2023/08/11 08:26:35;;;;;;;0.33;0.30;;;23.40;82.80;;;;;;4953992;28;20074;-83
2023/08/11 08:29:01;;;;;;;2.38;0.45;;;23.60;81.20;;;;;;4960105;28;20040;-83
2023/08/11 08:31:27;;;;;;;0.52;0.52;;;24.10;79.20;;;;;;4962404;28;20019;-82
2023/08/11 08:33:54;;;;;;;0.25;0.25;;;24.20;79.10;;;;;;4964453;28;20114;-84
2023/08/11 08:36:20;;;;;;;0.32;0.30;;;25.30;76.50;;;;;;4957693;28;20027;-83
2023/08/11 08:38:46;;;;;;;0.40;0.40;;;25.60;71.60;;;;;;4964899;28;20045;-83
2023/08/11 08:41:18;;;;;;;0.13;0.13;;;25.40;74.40;;;;;;4964600;28;20034;-83
2023/08/11 08:43:44;;;;;;;0.30;0.30;;;26.10;73.70;;;;;;4963024;28;20081;-83
2023/08/11 08:46:11;;;;;;;0.10;0.08;;;27.80;67.30;;;;;;4964592;28;20027;-83
2023/08/11 08:48:47;;;;;;;0.60;0.35;;;28.80;64.30;;;;;;4964182;28;20525;-83
2023/08/11 08:51:14;;;;;;;0.00;0.00;;;31.70;59.90;;;;;;4963116;28;20030;-84
2023/08/11 08:53:40;;;;;;;0.15;0.15;;;33.70;54.60;;;;;;4963611;28;20031;-83
2023/08/11 08:56:06;;;;;;;;;;;34.10;53.50;;;;;;4960054;28;20031;-86
2023/08/11 08:58:32;;;;;;;0.00;0.00;;;33.90;52.10;;;;;;4961577;28;20016;-84
2023/08/11 09:01:03;;;;;;;0.45;0.45;;;34.30;51.50;;;;;;4964908;28;20564;-83
2023/08/11 09:03:33;;;;;;;0.00;0.00;;;32.40;55.70;;;;;;4958606;28;20030;-83
2023/08/11 09:05:59;;;;;;;0.10;0.10;;;34.40;53.30;;;;;;4964177;28;20023;-83
2023/08/11 09:08:25;;;;;;;0.25;0.22;;;32.90;53.60;;;;;;4963243;28;20058;-85
2023/08/11 09:10:50;;;;;;;0.22;0.22;;;34.10;52.10;;;;;;4963938;28;20027;-83
2023/08/11 09:13:16;;;;;;;0.20;0.20;;;34.30;51.40;;;;;;4963626;28;20034;-83
2023/08/11 09:15:44;;;;;;;0.03;0.03;;;34.10;51.30;;;;;;4964210;28;20852;-83
2023/08/11 09:18:16;;;;;;;0.10;0.10;;;33.30;53.30;;;;;;4962084;28;20322;-82
2023/08/11 09:20:45;;;;;;;2.83;1.13;;;33.70;52.20;;;;;;4962845;28;20039;-83
2023/08/11 09:23:10;;;;;;;0.17;0.17;;;34.80;51.10;;;;;;4964483;28;20018;-83
2023/08/11 09:25:36;;;;;;;0.00;0.00;;;34.80;51.10;;;;;;4954677;28;20055;-83
2023/08/11 09:28:02;;;;;;;1.35;0.57;;;34.80;50.10;;;;;;4966783;28;20019;-84
2023/08/11 09:30:31;;;;;;;0.10;0.10;;;34.90;50.70;;;;;;4967360;28;20093;-84
2023/08/11 09:33:01;;;;;;;3.00;1.05;;;34.50;50.90;;;;;;4958753;28;20558;-84
2023/08/11 09:35:27;;;;;;;0.10;0.10;;;35.30;49.30;;;;;;4956227;28;20027;-83
2023/08/11 09:37:54;;;;;;;0.20;0.20;;;34.70;48.80;;;;;;4958178;28;20027;-83
2023/08/11 09:40:21;;;;;;;0.13;0.13;;;35.10;50.10;;;;;;4955875;28;20027;-83
2023/08/11 09:42:47;;;;;;;0.80;0.60;;;35.70;49.10;;;;;;4958784;28;20066;-84
2023/08/11 09:45:14;;;;;;;0.40;0.40;;;35.60;49.50;;;;;;4959901;28;20550;-83
2023/08/11 09:47:40;;;;;;;0.30;0.30;;;36.60;48.80;;;;;;4959043;28;20049;-84
2023/08/11 09:50:08;;;;;;;0.00;0.00;;;36.50;48.40;;;;;;4957491;28;20038;-82
2023/08/11 09:52:35;;;;;;;0.00;0.00;;;37.10;47.00;;;;;;4960970;28;20821;-83
2023/08/11 09:55:06;;;;;;;0.28;0.28;;;37.50;47.60;;;;;;4959300;28;20025;-83
2023/08/11 09:57:36;;;;;;;0.00;0.00;;;37.90;47.10;;;;;;4958723;28;20900;-82
2023/08/11 10:00:04;;;;;;;0.00;0.00;;;37.80;46.00;;;;;;4959479;28;20412;-85
2023/08/11 10:02:32;;;;;;;0.05;0.05;;;37.60;46.10;;;;;;4964240;28;20282;-83
2023/08/11 10:05:03;;;;;;;2.35;0.70;;;37.90;44.90;;;;;;4968065;28;20025;-83
2023/08/11 10:07:34;;;;;;;0.00;0.00;;;37.30;45.20;;;;;;4967899;28;20066;-83
2023/08/11 10:10:03;;;;;;;0.22;0.22;;;37.90;47.70;;;;;;4966791;28;20031;-85
2023/08/11 10:12:29;;;;;;;1.17;0.55;;;37.80;46.50;;;;;;4967719;28;20030;-84
2023/08/11 10:14:55;;;;;;;1.98;1.08;;;37.30;46.40;;;;;;4967583;28;20073;-84
2023/08/11 10:17:21;;;;;;;;;;;36.80;47.40;;;;;;4966868;28;20446;-83
2023/08/11 10:19:47;;;;;;;0.57;0.57;;;37.10;48.30;;;;;;4968087;28;20022;-83
2023/08/11 10:22:13;;;;;;;;;;;36.60;48.50;;;;;;4968015;28;20039;-84
2023/08/11 10:24:40;;;;;;;0.30;0.30;;;37.50;48.10;;;;;;4967187;28;19963;-84
2023/08/11 10:27:07;;;;;;;0.00;0.00;;;37.30;48.90;;;;;;4967350;28;20014;-83
2023/08/11 10:29:35;;;;;;;1.92;0.45;;;37.10;48.40;;;;;;4969043;28;20871;-85
2023/08/11 10:32:01;;;;;;;1.45;0.57;;;36.10;48.80;;;;;;4967934;28;20019;-83
2023/08/11 10:34:27;;;;;;;0.43;0.13;;;35.50;50.00;;;;;;4967144;28;20081;-83
2023/08/11 10:36:57;;;;;;;0.68;0.10;;;33.60;50.10;;;;;;4967840;28;20031;-83
2023/08/11 10:39:23;;;;;;;0.60;0.20;;;32.40;53.00;;;;;;4967459;28;20035;-83
2023/08/11 10:41:50;;;;;;;0.38;0.38;;;31.40;55.90;;;;;;4966463;28;20498;-84
2023/08/11 10:44:19;;;;;;;5.10;1.08;;;30.70;56.50;;;;;;4967333;28;20505;-83
2023/08/11 10:46:47;;;;;;;0.10;0.10;;;31.40;59.30;;;;;;4966983;28;20031;-83
2023/08/11 10:49:13;;;;;;;0.68;0.68;;;31.60;58.50;;;;;;4967239;28;20109;-84
2023/08/11 10:51:39;;;;;;;1.45;0.47;;;30.40;60.30;;;;;;4966852;28;20491;-84
2023/08/11 10:54:22;;;;;;;0.10;0.10;;;30.80;59.60;;;;;;4966768;28;20085;-83
2023/08/11 10:56:48;;;;;;;0.25;0.25;;;31.00;60.60;;;;;;4966609;28;20027;-83
2023/08/11 10:59:28;;;;;;;0.45;0.38;;;30.20;63.40;;;;;;4967052;28;20105;-83
2023/08/11 11:01:56;;;;;;;0.10;0.10;;;30.40;63.10;;;;;;4966778;28;20410;-83
2023/08/11 11:04:26;;;;;;;0.10;0.10;;;30.30;62.00;;;;;;4965561;28;20893;-84
2023/08/11 11:06:52;;;;;;;0.25;0.25;;;30.10;60.10;;;;;;4964367;28;20494;-83
2023/08/11 11:09:18;;;;;;;0.50;0.50;;;30.30;63.70;;;;;;4966903;28;20117;-84
2023/08/11 11:11:45;;;;;;;0.35;0.35;;;30.10;62.70;;;;;;4966923;28;20027;-84
2023/08/11 11:14:12;;;;;;;2.33;0.85;;;30.30;64.60;;;;;;4966499;28;20023;-83
2023/08/11 11:16:38;;;;;;;0.38;0.38;;;30.30;61.10;;;;;;4966908;28;20027;-84
2023/08/11 11:19:06;;;;;;;0.40;0.10;;;30.00;63.60;;;;;;4966695;28;20038;-84
2023/08/11 11:21:32;;;;;;;0.55;0.50;;;29.80;61.70;;;;;;4966462;28;20019;-83
2023/08/11 11:23:58;;;;;;;0.00;0.00;;;29.50;60.80;;;;;;4966753;28;20073;-83
2023/08/11 11:26:29;;;;;;;0.55;0.47;;;29.50;62.60;;;;;;4964812;28;20066;-83
2023/08/11 11:28:57;;;;;;;2.50;0.73;;;29.50;63.60;;;;;;4975569;28;20065;-83
2023/08/11 11:31:25;;;;;;;0.20;0.20;;;29.50;62.00;;;;;;4965917;28;20057;-86
2023/08/11 11:33:51;;;;;;;0.40;0.40;;;29.60;64.60;;;;;;4966340;28;20766;-83
2023/08/11 11:36:19;;;;;;;0.10;0.10;;;29.60;65.20;;;;;;4965848;28;20034;-83
2023/08/11 11:38:45;;;;;;;0.00;0.00;;;29.30;64.80;;;;;;4966304;28;20082;-83
2023/08/11 11:41:15;;;;;;;0.43;0.43;;;29.20;64.70;;;;;;4965467;28;20038;-82
2023/08/11 11:43:42;;;;;;;0.60;0.60;;;29.10;66.40;;;;;;4966341;28;20030;-82
2023/08/11 11:46:14;;;;;;;0.13;0.13;;;29.00;64.20;;;;;;4964368;28;20053;-83
2023/08/11 11:48:46;;;;;;;0.30;0.28;;;29.20;64.90;;;;;;4965992;28;20031;-83
2023/08/11 11:51:16;;;;;;;0.08;0.08;;;29.10;64.60;;;;;;4965520;28;20041;-82
2023/08/11 11:53:43;;;;;;;0.10;0.10;;;28.90;62.80;;;;;;4981066;28;20045;-84
2023/08/11 11:56:14;;;;;;;1.65;0.73;;;29.00;63.90;;;;;;4965575;28;20059;-84
2023/08/11 11:58:40;;;;;;;0.10;0.10;;;28.80;63.00;;;;;;4966091;28;20083;-83
2023/08/11 12:01:10;;;;;;;0.00;0.00;;;28.80;64.10;;;;;;4965644;28;20038;-83
2023/08/11 12:03:36;;;;;;;0.10;0.10;;;28.90;64.10;;;;;;4965704;28;20023;-83
2023/08/11 12:06:04;;;;;;;0.05;0.05;;;28.80;64.70;;;;;;4964632;28;20038;-83
2023/08/11 12:08:32;;;;;;;0.00;0.00;;;28.60;63.50;;;;;;4965836;28;20707;-83
2023/08/11 12:11:00;;;;;;;0.00;0.00;;;28.60;62.90;;;;;;4965227;28;20074;-83
2023/08/11 12:13:26;;;;;;;0.93;0.93;;;28.70;64.80;;;;;;4965612;28;20041;-83
2023/08/11 12:15:52;;;;;;;0.08;0.08;;;28.70;65.00;;;;;;4965140;28;20023;-83
2023/08/11 12:18:19;;;;;;;0.77;0.65;;;28.80;65.10;;;;;;4965392;28;20133;-84
2023/08/11 12:20:44;;;;;;;0.70;0.70;;;28.70;62.90;;;;;;4965325;28;20479;-83
2023/08/11 12:23:10;;;;;;;0.30;0.30;;;28.70;64.40;;;;;;4965324;28;20802;-82
2023/08/11 12:25:36;;;;;;;9.05;0.88;;;28.70;64.40;;;;;;4964153;28;20042;-83
2023/08/11 12:28:02;;;;;;;0.30;0.30;;;28.80;65.50;;;;;;4965413;28;20038;-83
2023/08/11 12:30:28;;;;;;;;;;;28.80;64.90;;;;;;4965724;28;20465;-83
2023/08/11 12:32:54;;;;;;;0.20;0.20;;;28.70;64.20;;;;;;4979214;28;19906;-83
2023/08/11 12:35:20;;;;;;;0.45;0.45;;;28.60;65.50;;;;;;4965654;28;20550;-82
2023/08/11 12:37:46;;;;;;;0.10;0.10;;;28.60;66.20;;;;;;4964685;28;20109;-83
2023/08/11 12:40:12;;;;;;;0.35;0.35;;;28.70;65.80;;;;;;4964906;28;20023;-83
2023/08/11 12:42:38;;;;;;;1.65;1.25;;;28.80;67.20;;;;;;4964670;28;20039;-83
2023/08/11 12:45:05;;;;;;;;;;;28.80;65.50;;;;;;4965484;28;20113;-83